sensor_id;sensor_type;location;lat;lon;timestamp;pressure;altitude;pressure_sealevel;temperature;humidity
10392;BME280;5242;49.244;6.774;2022-12-07T00:07:05;99870.75;;;2.61;100.00
10392;BME280;5242;49.244;6.774;2022-12-07T00:14:57;99870.34;;;2.68;100.00
10392;BME280;5242;49.244;6.774;2022-12-07T00:22:49;99862.19;;;2.92;100.00
10392;BME280;5242;49.244;6.774;2022-12-07T00:30:40;99851.59;;;2.81;100.00
10392;BME280;5242;49.244;6.774;2022-12-07T00:38:34;99844.16;;;2.73;100.00
10392;BME280;5242;49.244;6.774;2022-12-07T00:46:26;99830.97;;;2.58;100.00
10392;BME280;5242;49.244;6.774;2022-12-07T00:54:18;99833.25;;;2.51;100.00
10392;BME280;5242;49.244;6.774;2022-12-07T01:02:10;99855.81;;;2.50;100.00
10392;BME280;5242;49.244;6.774;2022-12-07T01:10:01;99849.88;;;2.53;100.00
10392;BME280;5242;49.244;6.774;2022-12-07T01:17:54;99852.00;;;2.56;100.00
10392;BME280;5242;49.244;6.774;2022-12-07T01:25:54;99844.06;;;2.46;100.00
10392;BME280;5242;49.244;6.774;2022-12-07T01:33:48;99854.75;;;2.32;100.00
10392;BME280;5242;49.244;6.774;2022-12-07T01:41:41;99859.53;;;2.16;100.00
10392;BME280;5242;49.244;6.774;2022-12-07T01:49:41;99853.13;;;2.12;100.00
10392;BME280;5242;49.244;6.774;2022-12-07T01:57:37;99846.81;;;2.03;100.00
10392;BME280;5242;49.244;6.774;2022-12-07T02:05:32;99839.03;;;2.01;100.00
10392;BME280;5242;49.244;6.774;2022-12-07T02:13:28;99839.19;;;2.10;100.00
10392;BME280;5242;49.244;6.774;2022-12-07T02:37:41;99825.38;;;1.98;100.00
10392;BME280;5242;49.244;6.774;2022-12-07T02:45:36;99818.41;;;1.96;100.00
10392;BME280;5242;49.244;6.774;2022-12-07T03:17:44;99800.22;;;2.12;100.00
10392;BME280;5242;49.244;6.774;2022-12-07T03:25:44;99798.25;;;2.18;100.00
10392;BME280;5242;49.244;6.774;2022-12-07T03:33:51;99799.31;;;2.17;100.00
10392;BME280;5242;49.244;6.774;2022-12-07T03:41:45;99798.25;;;2.18;100.00
10392;BME280;5242;49.244;6.774;2022-12-07T03:49:41;99799.16;;;2.27;100.00
10392;BME280;5242;49.244;6.774;2022-12-07T03:57:36;99806.88;;;2.34;100.00
10392;BME280;5242;49.244;6.774;2022-12-07T04:05:29;99800.38;;;2.35;100.00
10392;BME280;5242;49.244;6.774;2022-12-07T04:13:21;99803.00;;;2.40;100.00
10392;BME280;5242;49.244;6.774;2022-12-07T04:21:12;99793.06;;;2.41;100.00
10392;BME280;5242;49.244;6.774;2022-12-07T04:29:04;99780.78;;;2.34;100.00
10392;BME280;5242;49.244;6.774;2022-12-07T04:36:58;99792.56;;;2.20;100.00
10392;BME280;5242;49.244;6.774;2022-12-07T04:44:50;99783.41;;;2.21;100.00
10392;BME280;5242;49.244;6.774;2022-12-07T04:52:42;99779.13;;;2.20;100.00
10392;BME280;5242;49.244;6.774;2022-12-07T05:00:34;99779.34;;;2.23;100.00
10392;BME280;5242;49.244;6.774;2022-12-07T05:08:26;99774.56;;;2.20;100.00
10392;BME280;5242;49.244;6.774;2022-12-07T05:16:18;99777.81;;;2.17;100.00
10392;BME280;5242;49.244;6.774;2022-12-07T05:24:11;99777.19;;;2.25;100.00
10392;BME280;5242;49.244;6.774;2022-12-07T05:32:05;99770.25;;;2.38;100.00
10392;BME280;5242;49.244;6.774;2022-12-07T05:39:57;99773.59;;;2.49;100.00
10392;BME280;5242;49.244;6.774;2022-12-07T05:47:48;99769.78;;;2.50;100.00
10392;BME280;5242;49.244;6.774;2022-12-07T05:55:40;99771.50;;;2.46;100.00
10392;BME280;5242;49.244;6.774;2022-12-07T06:03:32;99763.13;;;2.47;100.00
10392;BME280;5242;49.244;6.774;2022-12-07T06:11:24;99773.28;;;2.50;100.00
10392;BME280;5242;49.244;6.774;2022-12-07T06:19:35;99765.53;;;2.49;100.00
10392;BME280;5242;49.244;6.774;2022-12-07T06:27:26;99776.69;;;2.56;100.00
10392;BME280;5242;49.244;6.774;2022-12-07T06:35:18;99779.00;;;2.63;100.00
10392;BME280;5242;49.244;6.774;2022-12-07T06:43:10;99775.16;;;2.69;100.00
10392;BME280;5242;49.244;6.774;2022-12-07T06:51:02;99776.94;;;2.73;100.00
10392;BME280;5242;49.244;6.774;2022-12-07T06:58:54;99772.56;;;2.77;100.00
10392;BME280;5242;49.244;6.774;2022-12-07T07:06:46;99770.91;;;2.81;100.00
10392;BME280;5242;49.244;6.774;2022-12-07T07:14:38;99781.56;;;2.87;100.00
10392;BME280;5242;49.244;6.774;2022-12-07T07:22:30;99788.53;;;2.88;100.00
10392;BME280;5242;49.244;6.774;2022-12-07T07:30:22;99799.47;;;2.91;100.00
10392;BME280;5242;49.244;6.774;2022-12-07T07:38:14;99795.13;;;2.95;100.00
10392;BME280;5242;49.244;6.774;2022-12-07T07:46:05;99805.00;;;3.00;100.00
10392;BME280;5242;49.244;6.774;2022-12-07T07:53:57;99792.53;;;3.04;100.00
10392;BME280;5242;49.244;6.774;2022-12-07T08:01:49;99796.34;;;3.17;100.00
10392;BME280;5242;49.244;6.774;2022-12-07T08:09:41;99801.53;;;3.27;100.00
10392;BME280;5242;49.244;6.774;2022-12-07T08:17:33;99803.94;;;3.42;100.00
10392;BME280;5242;49.244;6.774;2022-12-07T08:25:25;99803.16;;;3.56;100.00
10392;BME280;5242;49.244;6.774;2022-12-07T08:33:17;99817.72;;;3.68;100.00
10392;BME280;5242;49.244;6.774;2022-12-07T08:41:08;99825.69;;;3.74;100.00
10392;BME280;5242;49.244;6.774;2022-12-07T08:49:12;99825.50;;;3.84;100.00
10392;BME280;5242;49.244;6.774;2022-12-07T08:57:05;99826.69;;;3.91;100.00
10392;BME280;5242;49.244;6.774;2022-12-07T09:04:57;99823.06;;;3.96;100.00
10392;BME280;5242;49.244;6.774;2022-12-07T09:12:49;99830.91;;;4.06;100.00
10392;BME280;5242;49.244;6.774;2022-12-07T09:20:41;99831.25;;;4.05;100.00
10392;BME280;5242;49.244;6.774;2022-12-07T09:28:33;99838.03;;;4.02;100.00
10392;BME280;5242;49.244;6.774;2022-12-07T09:36:25;99821.53;;;4.04;100.00
10392;BME280;5242;49.244;6.774;2022-12-07T09:44:24;99819.06;;;4.07;100.00
10392;BME280;5242;49.244;6.774;2022-12-07T09:52:20;99811.38;;;4.14;100.00
10392;BME280;5242;49.244;6.774;2022-12-07T10:00:18;99808.44;;;4.25;100.00
10392;BME280;5242;49.244;6.774;2022-12-07T10:08:12;99800.22;;;4.30;100.00
10392;BME280;5242;49.244;6.774;2022-12-07T10:16:05;99800.13;;;4.35;100.00
10392;BME280;5242;49.244;6.774;2022-12-07T10:31:58;99782.69;;;4.41;100.00
10392;BME280;5242;49.244;6.774;2022-12-07T10:39:52;99773.25;;;4.52;100.00
10392;BME280;5242;49.244;6.774;2022-12-07T10:48:08;99769.13;;;4.77;100.00
10392;BME280;5242;49.244;6.774;2022-12-07T11:04:41;99752.19;;;5.17;100.00
10392;BME280;5242;49.244;6.774;2022-12-07T11:12:47;99744.75;;;5.22;100.00
10392;BME280;5242;49.244;6.774;2022-12-07T11:37:13;99720.81;;;5.38;99.21
10392;BME280;5242;49.244;6.774;2022-12-07T11:45:26;99715.09;;;5.40;98.91
10392;BME280;5242;49.244;6.774;2022-12-07T11:53:22;99704.59;;;5.38;98.33
10392;BME280;5242;49.244;6.774;2022-12-07T12:09:34;99684.09;;;5.37;99.13
10392;BME280;5242;49.244;6.774;2022-12-07T12:17:38;99687.94;;;5.45;97.28
10392;BME280;5242;49.244;6.774;2022-12-07T12:25:51;99692.38;;;5.41;96.16
10392;BME280;5242;49.244;6.774;2022-12-07T12:33:55;99691.88;;;5.39;95.32
10392;BME280;5242;49.244;6.774;2022-12-07T12:49:41;99671.38;;;5.29;95.39
10392;BME280;5242;49.244;6.774;2022-12-07T12:57:35;99675.38;;;5.32;97.16
10392;BME280;5242;49.244;6.774;2022-12-07T13:05:31;99660.75;;;5.33;95.72
10392;BME280;5242;49.244;6.774;2022-12-07T13:37:30;99634.78;;;5.06;96.93
10392;BME280;5242;49.244;6.774;2022-12-07T13:45:31;99630.50;;;5.05;94.96
10392;BME280;5242;49.244;6.774;2022-12-07T13:53:48;99627.94;;;4.99;95.24
10392;BME280;5242;49.244;6.774;2022-12-07T14:01:41;99620.16;;;4.98;96.97
10392;BME280;5242;49.244;6.774;2022-12-07T14:09:33;99626.19;;;5.04;97.07
10392;BME280;5242;49.244;6.774;2022-12-07T14:17:26;99612.69;;;5.04;96.60
10392;BME280;5242;49.244;6.774;2022-12-07T14:25:22;99614.94;;;5.01;96.58
10392;BME280;5242;49.244;6.774;2022-12-07T14:33:14;99597.44;;;4.90;95.41
10392;BME280;5242;49.244;6.774;2022-12-07T14:41:13;99595.34;;;4.87;96.69
10392;BME280;5242;49.244;6.774;2022-12-07T14:49:25;99588.84;;;4.88;96.98
10392;BME280;5242;49.244;6.774;2022-12-07T14:57:25;99586.78;;;4.85;96.61
10392;BME280;5242;49.244;6.774;2022-12-07T15:05:17;99589.63;;;4.80;96.82
10392;BME280;5242;49.244;6.774;2022-12-07T15:13:10;99596.59;;;4.72;95.96
10392;BME280;5242;49.244;6.774;2022-12-07T15:21:20;99584.50;;;4.70;96.51
10392;BME280;5242;49.244;6.774;2022-12-07T15:29:12;99592.59;;;4.61;95.90
10392;BME280;5242;49.244;6.774;2022-12-07T15:37:13;99590.97;;;4.51;96.04
10392;BME280;5242;49.244;6.774;2022-12-07T15:45:06;99589.03;;;4.43;96.83
10392;BME280;5242;49.244;6.774;2022-12-07T15:52:59;99584.25;;;4.40;96.57
10392;BME280;5242;49.244;6.774;2022-12-07T16:00:50;99566.59;;;4.34;96.60
10392;BME280;5242;49.244;6.774;2022-12-07T16:08:44;99562.25;;;4.16;96.61
10392;BME280;5242;49.244;6.774;2022-12-07T16:16:36;99571.22;;;4.02;97.46
10392;BME280;5242;49.244;6.774;2022-12-07T16:24:28;99559.41;;;3.89;96.75
10392;BME280;5242;49.244;6.774;2022-12-07T16:32:20;99572.28;;;3.70;97.51
10392;BME280;5242;49.244;6.774;2022-12-07T16:40:12;99557.59;;;3.54;97.80
10392;BME280;5242;49.244;6.774;2022-12-07T16:48:04;99553.59;;;3.29;97.11
10392;BME280;5242;49.244;6.774;2022-12-07T16:55:56;99559.53;;;3.03;97.49
10392;BME280;5242;49.244;6.774;2022-12-07T17:03:48;99553.81;;;2.82;98.08
10392;BME280;5242;49.244;6.774;2022-12-07T17:11:43;99549.44;;;2.72;99.49
10392;BME280;5242;49.244;6.774;2022-12-07T17:19:35;99545.16;;;2.71;100.00
10392;BME280;5242;49.244;6.774;2022-12-07T17:27:27;99549.44;;;2.58;99.10
10392;BME280;5242;49.244;6.774;2022-12-07T17:35:19;99529.53;;;2.46;99.36
10392;BME280;5242;49.244;6.774;2022-12-07T17:43:11;99531.13;;;2.33;100.00
10392;BME280;5242;49.244;6.774;2022-12-07T17:51:03;99521.38;;;2.23;100.00
10392;BME280;5242;49.244;6.774;2022-12-07T17:59:13;99523.44;;;2.12;100.00
10392;BME280;5242;49.244;6.774;2022-12-07T18:07:05;99528.09;;;2.07;100.00
10392;BME280;5242;49.244;6.774;2022-12-07T18:14:57;99526.53;;;2.06;100.00
10392;BME280;5242;49.244;6.774;2022-12-07T18:22:49;99521.16;;;2.20;100.00
10392;BME280;5242;49.244;6.774;2022-12-07T18:30:41;99514.00;;;2.29;100.00
10392;BME280;5242;49.244;6.774;2022-12-07T18:38:53;99505.66;;;2.30;100.00
10392;BME280;5242;49.244;6.774;2022-12-07T18:46:45;99498.66;;;2.29;100.00
10392;BME280;5242;49.244;6.774;2022-12-07T18:54:37;99508.63;;;2.29;100.00
10392;BME280;5242;49.244;6.774;2022-12-07T19:02:29;99505.72;;;2.39;100.00
10392;BME280;5242;49.244;6.774;2022-12-07T19:10:21;99501.03;;;2.45;100.00
10392;BME280;5242;49.244;6.774;2022-12-07T19:18:13;99491.59;;;2.47;100.00
10392;BME280;5242;49.244;6.774;2022-12-07T19:26:04;99485.91;;;2.49;100.00
10392;BME280;5242;49.244;6.774;2022-12-07T19:33:56;99495.66;;;2.45;100.00
10392;BME280;5242;49.244;6.774;2022-12-07T19:41:48;99480.16;;;2.42;100.00
10392;BME280;5242;49.244;6.774;2022-12-07T19:49:40;99472.09;;;2.42;100.00
10392;BME280;5242;49.244;6.774;2022-12-07T19:57:31;99466.50;;;2.52;100.00
10392;BME280;5242;49.244;6.774;2022-12-07T20:05:23;99486.59;;;2.54;100.00
10392;BME280;5242;49.244;6.774;2022-12-07T20:13:16;99474.94;;;2.59;100.00
10392;BME280;5242;49.244;6.774;2022-12-07T20:21:23;99465.16;;;2.63;100.00
10392;BME280;5242;49.244;6.774;2022-12-07T20:29:17;99467.28;;;2.66;100.00
10392;BME280;5242;49.244;6.774;2022-12-07T20:37:09;99459.56;;;2.73;100.00
10392;BME280;5242;49.244;6.774;2022-12-07T20:45:02;99458.16;;;2.76;100.00
10392;BME280;5242;49.244;6.774;2022-12-07T20:52:54;99455.06;;;2.82;100.00
10392;BME280;5242;49.244;6.774;2022-12-07T21:00:51;99454.78;;;2.84;100.00
10392;BME280;5242;49.244;6.774;2022-12-07T21:08:44;99451.28;;;2.83;100.00
10392;BME280;5242;49.244;6.774;2022-12-07T21:16:36;99429.88;;;2.78;100.00
10392;BME280;5242;49.244;6.774;2022-12-07T21:24:28;99432.66;;;2.87;100.00
10392;BME280;5242;49.244;6.774;2022-12-07T21:32:20;99417.56;;;3.00;100.00
10392;BME280;5242;49.244;6.774;2022-12-07T21:40:12;99417.44;;;3.05;100.00
10392;BME280;5242;49.244;6.774;2022-12-07T21:48:08;99409.84;;;3.07;100.00
10392;BME280;5242;49.244;6.774;2022-12-07T21:56:00;99403.84;;;3.10;100.00
10392;BME280;5242;49.244;6.774;2022-12-07T22:03:53;99393.59;;;3.12;100.00
10392;BME280;5242;49.244;6.774;2022-12-07T22:11:45;99399.44;;;3.14;100.00
10392;BME280;5242;49.244;6.774;2022-12-07T22:19:37;99393.47;;;3.17;100.00
10392;BME280;5242;49.244;6.774;2022-12-07T22:27:29;99385.84;;;3.19;100.00
10392;BME280;5242;49.244;6.774;2022-12-07T22:35:21;99392.72;;;3.25;100.00
10392;BME280;5242;49.244;6.774;2022-12-07T22:43:13;99374.81;;;3.30;100.00
10392;BME280;5242;49.244;6.774;2022-12-07T22:51:05;99373.88;;;3.25;100.00
10392;BME280;5242;49.244;6.774;2022-12-07T22:58:57;99365.78;;;3.25;100.00
10392;BME280;5242;49.244;6.774;2022-12-07T23:06:49;99363.59;;;3.28;100.00
10392;BME280;5242;49.244;6.774;2022-12-07T23:14:40;99345.22;;;3.30;100.00
10392;BME280;5242;49.244;6.774;2022-12-07T23:22:32;99353.28;;;3.30;100.00
10392;BME280;5242;49.244;6.774;2022-12-07T23:30:24;99341.56;;;3.25;100.00
10392;BME280;5242;49.244;6.774;2022-12-07T23:38:16;99343.72;;;3.15;100.00
10392;BME280;5242;49.244;6.774;2022-12-07T23:46:10;99336.56;;;3.10;100.00
10392;BME280;5242;49.244;6.774;2022-12-07T23:54:02;99333.41;;;3.08;100.00
